Time;durP1;ratioP1;P1;durP2;ratioP2;P2;SDS_P1;SDS_P2;PMS_P1;PMS_P2;Temp;Humidity;BMP_temperature;BMP_pressure;BME280_temperature;BME280_humidity;BME280_pressure;Samples;Min_cycle;Max_cycle;Signal;HPM_P1;HPM_P2
2021/07/15 00:01:08;;;;;;;27.17;9.55;;;19.10;99.90;;;;;;5064305;28;20056;-72
2021/07/15 00:03:34;;;;;;;19.35;7.82;;;19.10;99.90;;;;;;5066669;28;20024;-72
2021/07/15 00:06:00;;;;;;;17.85;8.18;;;19.10;99.90;;;;;;5082327;28;20043;-71
2021/07/15 00:08:27;;;;;;;21.38;9.52;;;19.20;99.90;;;;;;5081532;28;20029;-72
2021/07/15 00:11:20;;;;;;;17.23;7.95;;;19.10;99.90;;;;;;5083964;28;20040;-71
2021/07/15 00:13:46;;;;;;;20.77;8.27;;;19.10;99.90;;;;;;5089306;28;20032;-72
2021/07/15 00:16:12;;;;;;;21.30;7.93;;;19.00;99.90;;;;;;5083462;28;20397;-73
2021/07/15 00:18:42;;;;;;;21.88;8.65;;;19.00;99.90;;;;;;5059550;28;20077;-72
2021/07/15 00:21:11;;;;;;;18.00;7.83;;;19.00;99.90;;;;;;5082220;28;20029;-72
2021/07/15 00:23:37;;;;;;;21.02;8.73;;;19.00;99.90;;;;;;5081348;28;20055;-72
2021/07/15 00:26:04;;;;;;;23.45;8.93;;;19.00;99.90;;;;;;5088315;28;20024;-72
2021/07/15 00:28:31;;;;;;;19.45;9.00;;;19.00;99.90;;;;;;5087710;28;20032;-73
2021/07/15 00:30:57;;;;;;;19.52;8.63;;;19.00;99.90;;;;;;5075541;28;20033;-72
2021/07/15 00:33:22;;;;;;;21.23;8.68;;;19.00;99.90;;;;;;5072031;28;20035;-72
2021/07/15 00:35:48;;;;;;;21.45;8.93;;;19.00;99.90;;;;;;5080547;28;20032;-72
2021/07/15 00:38:14;;;;;;;20.38;9.57;;;19.00;99.90;;;;;;5064585;28;20461;-72
2021/07/15 00:40:40;;;;;;;16.90;8.57;;;19.00;99.90;;;;;;5082038;28;20032;-72
2021/07/15 00:43:07;;;;;;;23.95;8.98;;;19.00;99.90;;;;;;5079683;28;20555;-72
2021/07/15 00:45:33;;;;;;;24.70;9.52;;;19.00;99.90;;;;;;5062098;28;20035;-72
2021/07/15 00:47:59;;;;;;;21.35;9.15;;;19.00;99.90;;;;;;5080153;28;20040;-74
2021/07/15 00:50:26;;;;;;;18.45;8.50;;;19.00;99.90;;;;;;5064743;28;20043;-72
2021/07/15 00:52:53;;;;;;;21.33;8.98;;;19.00;99.90;;;;;;5061792;28;20057;-72
2021/07/15 00:55:24;;;;;;;24.20;8.60;;;19.00;99.90;;;;;;5081825;28;20077;-72
2021/07/15 00:57:50;;;;;;;24.23;8.85;;;19.00;99.90;;;;;;5082090;28;20488;-72
2021/07/15 01:00:17;;;;;;;26.35;9.88;;;19.00;99.90;;;;;;5060810;28;20055;-72
2021/07/15 01:02:43;;;;;;;21.20;8.60;;;19.00;99.90;;;;;;5079437;28;20131;-72
2021/07/15 01:05:18;;;;;;;17.83;8.23;;;19.00;99.90;;;;;;5078647;28;20032;-72
2021/07/15 01:07:44;;;;;;;21.45;8.63;;;19.00;99.90;;;;;;5061794;28;20040;-72
2021/07/15 01:10:12;;;;;;;21.27;8.55;;;18.90;99.90;;;;;;5060943;28;20039;-73
2021/07/15 01:12:52;;;;;;;21.55;9.65;;;18.90;99.90;;;;;;5083845;28;20127;-72
2021/07/15 01:15:22;;;;;;;20.92;8.85;;;18.90;99.90;;;;;;5060761;28;20463;-72
2021/07/15 01:17:57;;;;;;;21.98;8.27;;;18.90;99.90;;;;;;5061999;28;20032;-72
2021/07/15 01:20:59;;;;;;;18.17;8.07;;;18.90;99.90;;;;;;5081643;28;20116;-72
2021/07/15 01:24:15;;;;;;;22.83;8.10;;;18.80;99.90;;;;;;5080023;28;20078;-73
2021/07/15 01:27:08;;;;;;;22.63;8.27;;;18.80;99.90;;;;;;5077068;28;20090;-72
2021/07/15 01:29:56;;;;;;;19.42;8.30;;;18.70;99.90;;;;;;5075138;28;20025;-73
2021/07/15 01:32:27;;;;;;;19.45;8.82;;;18.70;99.90;;;;;;5080012;28;20516;-73
2021/07/15 01:34:53;;;;;;;;;;;18.70;99.90;;;;;;5058803;28;20028;-72
2021/07/15 01:37:19;;;;;;;20.90;7.43;;;18.70;99.90;;;;;;5063011;28;20269;-74
2021/07/15 01:39:48;;;;;;;16.48;8.20;;;18.60;99.90;;;;;;5059319;28;20029;-73
2021/07/15 01:42:18;;;;;;;19.87;7.60;;;18.70;99.90;;;;;;5062192;28;20043;-72
2021/07/15 01:44:44;;;;;;;16.33;7.13;;;18.60;99.90;;;;;;5080949;28;20495;-72
2021/07/15 01:47:11;;;;;;;14.65;7.57;;;18.60;99.90;;;;;;5061920;28;20063;-72
2021/07/15 01:49:37;;;;;;;17.60;7.55;;;18.60;99.90;;;;;;5082216;28;20078;-72
2021/07/15 01:52:03;;;;;;;15.73;7.97;;;18.60;99.90;;;;;;5082419;28;20039;-73
2021/07/15 01:54:30;;;;;;;19.30;7.25;;;18.70;99.90;;;;;;5059817;28;20036;-72
2021/07/15 01:56:56;;;;;;;19.52;7.25;;;18.60;99.90;;;;;;5059912;28;20067;-72
2021/07/15 01:59:27;;;;;;;15.43;6.78;;;18.60;99.90;;;;;;5064422;28;20038;-72
2021/07/15 02:01:55;;;;;;;18.60;7.85;;;18.60;99.90;;;;;;5078995;28;20115;-73
2021/07/15 02:04:21;;;;;;;16.10;7.22;;;18.60;99.90;;;;;;5060748;28;20032;-72
2021/07/15 02:06:49;;;;;;;13.77;7.15;;;18.60;99.90;;;;;;5077812;28;20037;-73
2021/07/15 02:09:16;;;;;;;23.13;7.10;;;18.60;99.90;;;;;;5062659;28;20173;-73
2021/07/15 02:11:43;;;;;;;15.52;7.65;;;18.60;99.90;;;;;;5080207;28;20046;-73
2021/07/15 02:14:12;;;;;;;15.25;6.63;;;18.60;99.90;;;;;;5060435;28;20028;-73
2021/07/15 02:16:45;;;;;;;15.30;6.22;;;18.60;99.90;;;;;;5078245;28;20520;-73
2021/07/15 02:19:13;;;;;;;17.42;6.63;;;18.60;99.90;;;;;;5082281;28;20385;-73
2021/07/15 02:21:39;;;;;;;15.95;7.13;;;18.60;99.90;;;;;;5080652;28;20391;-73
2021/07/15 02:24:09;;;;;;;15.32;6.28;;;18.60;99.90;;;;;;5078848;28;20108;-74
2021/07/15 02:26:36;;;;;;;13.05;6.47;;;18.60;99.90;;;;;;5081070;28;20124;-74
2021/07/15 02:29:02;;;;;;;17.65;7.55;;;18.50;99.90;;;;;;5063203;28;20020;-73
2021/07/15 02:31:52;;;;;;;19.33;7.18;;;18.60;99.90;;;;;;5059896;28;20078;-73
2021/07/15 02:34:28;;;;;;;16.15;6.03;;;18.50;99.90;;;;;;5054492;28;20119;-73
2021/07/15 02:36:58;;;;;;;13.00;6.32;;;18.50;99.90;;;;;;5059567;28;20405;-74
2021/07/15 02:39:24;;;;;;;13.07;6.07;;;18.50;99.90;;;;;;5060437;28;20037;-73
2021/07/15 02:41:50;;;;;;;15.70;6.20;;;18.50;99.90;;;;;;5077552;28;20497;-72
2021/07/15 02:44:15;;;;;;;12.93;6.72;;;18.50;99.90;;;;;;5079612;28;20029;-73
2021/07/15 02:46:41;;;;;;;12.95;6.22;;;18.50;99.90;;;;;;5075594;28;20040;-72
2021/07/15 02:49:07;;;;;;;17.58;7.22;;;18.50;99.90;;;;;;5063646;28;20111;-73
2021/07/15 02:51:33;;;;;;;16.70;5.85;;;18.50;99.90;;;;;;5077400;28;20044;-72
2021/07/15 02:54:01;;;;;;;13.65;6.38;;;18.50;99.90;;;;;;5080426;28;20047;-73
2021/07/15 02:56:51;;;;;;;14.07;6.65;;;18.50;99.90;;;;;;5055789;28;20114;-73
2021/07/15 02:59:43;;;;;;;16.08;6.28;;;18.40;99.90;;;;;;5059669;28;20040;-72
2021/07/15 03:02:22;;;;;;;15.00;6.18;;;18.40;99.90;;;;;;5060828;28;20044;-72
2021/07/15 03:04:58;;;;;;;12.50;6.10;;;18.40;99.90;;;;;;5080654;28;20064;-72
2021/07/15 03:07:27;;;;;;;14.75;6.70;;;18.30;99.90;;;;;;5078104;28;20033;-73
2021/07/15 03:09:55;;;;;;;12.15;6.30;;;18.30;99.90;;;;;;5082448;28;20040;-73
2021/07/15 03:12:24;;;;;;;13.07;6.25;;;18.30;99.90;;;;;;5062458;28;20040;-73
2021/07/15 03:14:54;;;;;;;13.17;6.17;;;18.30;99.90;;;;;;5059003;28;20048;-73
2021/07/15 03:17:36;;;;;;;14.93;6.72;;;18.30;99.90;;;;;;5080591;28;20032;-72
2021/07/15 03:20:10;;;;;;;15.93;6.70;;;18.20;99.90;;;;;;5059673;28;20441;-72
2021/07/15 03:22:37;;;;;;;15.23;6.32;;;18.20;99.90;;;;;;5077338;28;20047;-73
2021/07/15 03:25:07;;;;;;;17.42;5.93;;;18.20;99.90;;;;;;5060014;28;20029;-73
2021/07/15 03:27:35;;;;;;;12.48;5.97;;;18.20;99.90;;;;;;5080463;28;20368;-73
2021/07/15 03:30:05;;;;;;;17.40;6.15;;;18.20;99.90;;;;;;5080695;28;20539;-73
2021/07/15 03:32:31;;;;;;;13.43;5.97;;;18.20;99.90;;;;;;5081406;28;20115;-73
2021/07/15 03:34:57;;;;;;;13.95;6.00;;;18.30;99.90;;;;;;5077079;28;20039;-73
2021/07/15 03:37:23;;;;;;;16.63;6.63;;;18.30;99.90;;;;;;5080017;28;20149;-72
2021/07/15 03:39:51;;;;;;;14.38;5.47;;;18.30;99.90;;;;;;5081395;28;20496;-73
2021/07/15 03:42:19;;;;;;;12.40;5.90;;;18.20;99.90;;;;;;5076794;28;20032;-73
2021/07/15 03:44:46;;;;;;;14.55;5.40;;;18.20;99.90;;;;;;5059539;28;20079;-72
2021/07/15 03:47:13;;;;;;;12.70;5.68;;;18.20;99.90;;;;;;5077352;28;20551;-73
2021/07/15 03:49:42;;;;;;;14.82;5.70;;;18.20;99.90;;;;;;5078214;28;20043;-73
2021/07/15 03:52:15;;;;;;;17.42;6.07;;;18.20;99.90;;;;;;5062647;28;20527;-73
2021/07/15 03:54:43;;;;;;;13.65;6.00;;;18.20;99.90;;;;;;5060179;28;20043;-73
2021/07/15 03:57:16;;;;;;;14.80;5.53;;;18.20;99.90;;;;;;5066304;28;20051;-72
2021/07/15 03:59:50;;;;;;;15.15;5.65;;;18.20;99.90;;;;;;5063738;28;20441;-73
2021/07/15 04:02:21;;;;;;;14.00;6.53;;;18.20;99.90;;;;;;5062778;28;20035;-73
2021/07/15 04:04:52;;;;;;;20.38;6.53;;;18.10;99.90;;;;;;5062431;28;20040;-73
2021/07/15 04:07:19;;;;;;;20.15;6.35;;;18.10;99.90;;;;;;5080617;28;20055;-73
2021/07/15 04:09:46;;;;;;;15.50;6.05;;;18.10;99.90;;;;;;5062046;28;20036;-73
2021/07/15 04:12:12;;;;;;;15.05;7.25;;;18.10;99.90;;;;;;5082348;28;20027;-73
2021/07/15 04:14:55;;;;;;;20.65;7.03;;;18.10;99.90;;;;;;5083049;28;20044;-73
2021/07/15 04:17:24;;;;;;;17.15;7.03;;;18.10;99.90;;;;;;5083895;28;20032;-73
2021/07/15 04:19:50;;;;;;;21.33;7.57;;;18.10;99.90;;;;;;5080005;28;20075;-73
2021/07/15 04:22:16;;;;;;;19.02;7.63;;;18.00;99.90;;;;;;5064726;28;20074;-72
2021/07/15 04:24:43;;;;;;;17.55;7.10;;;18.10;99.90;;;;;;5062477;28;20047;-73
2021/07/15 04:27:10;;;;;;;17.23;7.38;;;18.00;99.90;;;;;;5076273;28;20467;-73
2021/07/15 04:29:36;;;;;;;17.65;7.13;;;18.00;99.90;;;;;;5057365;28;20055;-72
2021/07/15 04:32:12;;;;;;;21.13;7.60;;;18.10;99.90;;;;;;5061511;28;20032;-73
2021/07/15 04:34:39;;;;;;;19.63;7.60;;;18.10;99.90;;;;;;5081029;28;20036;-73
2021/07/15 04:37:06;;;;;;;18.63;8.88;;;18.10;99.90;;;;;;5065837;28;20028;-73
2021/07/15 04:39:33;;;;;;;18.50;7.68;;;18.10;99.90;;;;;;5061487;28;20480;-73
2021/07/15 04:42:02;;;;;;;22.73;8.65;;;18.10;99.90;;;;;;5065454;28;20043;-72
2021/07/15 04:44:32;;;;;;;18.58;7.70;;;18.10;99.90;;;;;;5062063;28;20399;-73
2021/07/15 04:47:00;;;;;;;18.27;7.45;;;18.10;99.90;;;;;;5083791;28;20036;-72
2021/07/15 04:49:26;;;;;;;20.52;8.02;;;18.10;99.90;;;;;;5083482;28;20028;-72
2021/07/15 04:51:55;;;;;;;15.80;6.35;;;18.10;99.90;;;;;;5077647;28;20024;-73
2021/07/15 04:54:22;;;;;;;19.20;7.95;;;18.10;99.90;;;;;;5074068;28;20020;-72
2021/07/15 04:56:48;;;;;;;16.75;7.55;;;18.10;99.90;;;;;;5074977;28;20358;-72
2021/07/15 04:59:14;;;;;;;23.55;8.15;;;18.10;99.90;;;;;;5076400;28;20024;-73
2021/07/15 05:01:40;;;;;;;15.85;7.47;;;18.10;99.90;;;;;;5072277;28;20045;-73
2021/07/15 05:04:06;;;;;;;17.42;7.00;;;18.10;99.90;;;;;;5070257;28;20461;-72
2021/07/15 05:06:31;;;;;;;18.40;7.20;;;18.10;99.90;;;;;;5068692;28;20116;-73
2021/07/15 05:08:57;;;;;;;18.13;7.65;;;18.10;99.90;;;;;;5069660;28;20033;-73
2021/07/15 05:11:23;;;;;;;20.73;7.72;;;18.10;99.90;;;;;;5065878;28;20515;-72
2021/07/15 05:13:49;;;;;;;21.13;7.90;;;18.10;99.90;;;;;;5067726;28;20036;-73
2021/07/15 05:16:14;;;;;;;21.48;8.00;;;18.10;99.90;;;;;;5068602;28;20123;-72
2021/07/15 05:18:40;;;;;;;20.00;7.30;;;18.10;99.90;;;;;;5068853;28;20115;-72
2021/07/15 05:21:06;;;;;;;21.15;7.50;;;18.10;99.90;;;;;;5056936;28;20467;-72
2021/07/15 05:23:31;;;;;;;20.55;7.70;;;18.10;99.90;;;;;;5070434;28;20029;-72
2021/07/15 05:25:57;;;;;;;22.45;7.03;;;18.00;99.90;;;;;;5059265;28;20025;-73
2021/07/15 05:28:24;;;;;;;19.35;8.80;;;18.10;99.90;;;;;;5071426;28;20025;-72
2021/07/15 05:30:49;;;;;;;24.20;8.25;;;18.00;99.90;;;;;;5068917;28;20036;-73
2021/07/15 05:33:15;;;;;;;20.85;7.03;;;18.00;99.90;;;;;;5070501;28;20025;-72
2021/07/15 05:35:43;;;;;;;23.52;7.00;;;18.00;99.90;;;;;;5058491;28;20411;-72
2021/07/15 05:38:08;;;;;;;22.65;8.60;;;18.00;99.90;;;;;;5066393;28;20608;-73
2021/07/15 05:40:34;;;;;;;19.73;7.53;;;18.00;99.90;;;;;;5068412;28;20031;-72
2021/07/15 05:43:00;;;;;;;20.90;7.07;;;18.00;99.90;;;;;;5066723;28;20464;-72
2021/07/15 05:45:26;;;;;;;22.80;7.22;;;18.00;99.90;;;;;;5054300;28;20036;-71
2021/07/15 05:47:52;;;;;;;19.15;7.63;;;17.90;99.90;;;;;;5070204;28;20036;-72
2021/07/15 05:50:17;;;;;;;26.05;7.55;;;17.90;99.90;;;;;;5068534;28;20040;-71
2021/07/15 05:52:43;;;;;;;31.15;7.47;;;17.80;99.90;;;;;;5056808;28;20089;-71
2021/07/15 05:55:09;;;;;;;19.17;7.32;;;17.80;99.90;;;;;;5075175;28;20083;-71
2021/07/15 05:57:35;;;;;;;25.63;8.38;;;17.80;99.90;;;;;;5054556;28;20052;-71
2021/07/15 06:00:05;;;;;;;18.67;7.25;;;17.70;99.90;;;;;;5035519;28;20221;-71
2021/07/15 06:02:31;;;;;;;15.85;7.07;;;17.70;99.90;;;;;;5075111;28;20055;-71
2021/07/15 06:04:56;;;;;;;17.70;6.90;;;17.70;99.90;;;;;;5072945;28;20480;-71
2021/07/15 06:07:22;;;;;;;21.55;6.93;;;17.70;99.90;;;;;;5056071;28;20520;-71
2021/07/15 06:09:47;;;;;;;22.27;6.40;;;17.70;99.90;;;;;;5063082;28;20110;-71
2021/07/15 06:12:13;;;;;;;22.00;6.13;;;17.60;99.90;;;;;;5056032;28;20111;-71
2021/07/15 06:14:38;;;;;;;21.13;6.32;;;17.60;99.90;;;;;;5073731;28;20067;-71
2021/07/15 06:17:04;;;;;;;17.45;6.03;;;17.60;99.90;;;;;;5073255;28;20036;-72
2021/07/15 06:19:30;;;;;;;27.35;7.35;;;17.60;99.90;;;;;;5058977;28;20055;-72
2021/07/15 06:21:56;;;;;;;22.45;6.30;;;17.60;99.90;;;;;;5055239;28;20047;-72
2021/07/15 06:24:22;;;;;;;28.88;7.28;;;17.50;99.90;;;;;;5054700;28;20030;-71
2021/07/15 06:26:48;;;;;;;18.20;5.82;;;17.50;99.90;;;;;;5075823;28;20157;-71
2021/07/15 06:29:14;;;;;;;24.17;6.70;;;17.50;99.90;;;;;;5071647;28;20028;-71
2021/07/15 06:31:40;;;;;;;20.77;5.93;;;17.60;99.90;;;;;;5055784;28;20040;-71
2021/07/15 06:34:06;;;;;;;20.17;6.13;;;17.50;99.90;;;;;;5054625;28;20028;-72
2021/07/15 06:36:33;;;;;;;25.20;7.75;;;17.50;99.90;;;;;;5069355;28;20032;-71
2021/07/15 06:38:59;;;;;;;18.40;5.47;;;17.60;99.90;;;;;;5051630;28;20033;-72
2021/07/15 06:41:25;;;;;;;14.88;6.03;;;17.60;99.90;;;;;;5049388;28;20519;-72
2021/07/15 06:43:51;;;;;;;15.60;4.75;;;17.60;99.90;;;;;;5055538;28;20134;-71
2021/07/15 06:46:17;;;;;;;14.30;4.95;;;17.50;99.90;;;;;;5066917;28;20048;-72
2021/07/15 06:48:43;;;;;;;14.93;4.68;;;17.60;99.90;;;;;;5049331;28;20033;-71
2021/07/15 06:51:09;;;;;;;22.23;6.35;;;17.50;99.90;;;;;;5067006;28;20039;-72
2021/07/15 06:53:34;;;;;;;21.42;6.18;;;17.50;99.90;;;;;;5056126;28;20062;-72
2021/07/15 06:56:00;;;;;;;23.63;5.95;;;17.50;99.90;;;;;;5053717;28;20391;-73
2021/07/15 06:58:27;;;;;;;19.48;5.78;;;17.60;99.90;;;;;;5053231;28;20098;-72
2021/07/15 07:00:56;;;;;;;27.52;6.95;;;17.50;99.90;;;;;;5057606;28;20503;-71
2021/07/15 07:03:22;;;;;;;34.30;5.50;;;17.50;99.90;;;;;;5049938;28;20055;-72
2021/07/15 07:05:53;;;;;;;17.92;5.47;;;17.50;99.90;;;;;;5072612;28;20088;-71
2021/07/15 07:08:19;;;;;;;17.63;5.93;;;17.60;99.90;;;;;;5071329;28;20108;-71
2021/07/15 07:10:44;;;;;;;17.77;5.80;;;17.50;99.90;;;;;;5072100;28;20056;-71
2021/07/15 07:13:10;;;;;;;19.98;5.40;;;17.60;99.90;;;;;;5052454;28;20074;-72
2021/07/15 07:15:35;;;;;;;22.88;6.38;;;17.50;99.90;;;;;;5071602;28;20154;-71
2021/07/15 07:18:01;;;;;;;19.55;5.53;;;17.50;99.90;;;;;;5073852;28;20036;-71
2021/07/15 07:20:26;;;;;;;20.63;6.15;;;17.50;99.90;;;;;;5072204;28;20119;-71
2021/07/15 07:22:52;;;;;;;27.83;6.65;;;17.50;99.90;;;;;;5073117;28;20670;-71
2021/07/15 07:25:18;;;;;;;19.23;5.13;;;17.60;99.90;;;;;;5071092;28;20040;-71
2021/07/15 07:27:44;;;;;;;16.90;6.72;;;17.60;99.90;;;;;;5052831;28;20055;-71
2021/07/15 07:30:12;;;;;;;24.35;6.55;;;17.70;99.90;;;;;;5073197;28;20028;-71
2021/07/15 07:32:38;;;;;;;19.05;5.63;;;17.70;99.90;;;;;;5062649;28;20151;-71
2021/07/15 07:35:05;;;;;;;19.13;6.30;;;17.70;99.90;;;;;;5057122;28;20060;-71
2021/07/15 07:37:31;;;;;;;18.33;6.55;;;17.70;99.90;;;;;;5074819;28;20378;-71
2021/07/15 07:39:57;;;;;;;19.08;6.28;;;17.80;99.90;;;;;;5075409;28;20033;-71
2021/07/15 07:42:23;;;;;;;21.58;5.90;;;17.80;99.90;;;;;;5076000;28;20503;-71
2021/07/15 07:44:49;;;;;;;16.98;5.05;;;17.80;99.90;;;;;;5075540;28;20097;-71
2021/07/15 07:47:14;;;;;;;27.23;6.40;;;17.80;99.90;;;;;;5056457;28;20040;-71
2021/07/15 07:49:40;;;;;;;16.02;5.20;;;17.80;99.90;;;;;;5058175;28;20036;-71
2021/07/15 07:52:06;;;;;;;19.35;5.65;;;17.80;99.90;;;;;;5072525;28;20044;-71
2021/07/15 07:54:32;;;;;;;18.33;5.68;;;17.70;99.90;;;;;;5073283;28;20036;-72
2021/07/15 07:56:58;;;;;;;13.60;5.35;;;17.80;99.90;;;;;;5075562;28;20048;-72
2021/07/15 07:59:23;;;;;;;26.48;6.20;;;17.80;99.90;;;;;;5072761;28;20033;-71
2021/07/15 08:01:49;;;;;;;21.92;5.47;;;17.80;99.90;;;;;;5075510;28;20457;-71
2021/07/15 08:04:15;;;;;;;12.52;5.50;;;17.80;99.90;;;;;;5056787;28;20548;-71
2021/07/15 08:06:42;;;;;;;22.70;7.00;;;17.80;99.90;;;;;;5076492;28;20434;-72
2021/07/15 08:09:12;;;;;;;24.90;5.55;;;17.80;99.90;;;;;;5074677;28;20511;-71
2021/07/15 08:11:38;;;;;;;19.30;5.72;;;17.80;99.90;;;;;;5072587;28;20415;-71
2021/07/15 08:14:05;;;;;;;16.38;5.72;;;17.80;99.90;;;;;;5073321;28;20029;-71
2021/07/15 08:16:30;;;;;;;15.95;5.97;;;17.80;99.90;;;;;;5058146;28;20119;-72
2021/07/15 08:18:56;;;;;;;17.77;5.20;;;17.80;99.90;;;;;;5059701;28;20064;-71
2021/07/15 08:21:24;;;;;;;15.52;5.70;;;17.90;99.90;;;;;;5072628;28;20036;-72
2021/07/15 08:23:51;;;;;;;16.73;5.93;;;17.90;99.90;;;;;;5057313;28;20098;-71
2021/07/15 08:26:16;;;;;;;21.00;5.10;;;17.90;99.90;;;;;;5060396;28;20609;-73
2021/07/15 08:28:42;;;;;;;14.65;4.70;;;18.00;99.90;;;;;;5072421;28;20052;-71
2021/07/15 08:31:08;;;;;;;15.07;4.70;;;18.00;99.90;;;;;;5072650;28;20047;-71
2021/07/15 08:33:33;;;;;;;13.95;4.60;;;18.00;99.90;;;;;;5061378;28;20059;-72
2021/07/15 08:35:59;;;;;;;16.70;5.00;;;18.00;99.90;;;;;;5056517;28;20374;-71
2021/07/15 08:38:25;;;;;;;16.17;5.30;;;18.00;99.90;;;;;;5072035;28;20146;-72
2021/07/15 08:40:51;;;;;;;18.55;4.80;;;18.00;99.90;;;;;;5070932;28;20021;-71
2021/07/15 08:43:17;;;;;;;16.65;5.13;;;18.00;99.90;;;;;;5061747;28;20511;-71
2021/07/15 08:45:44;;;;;;;11.43;3.97;;;18.10;99.90;;;;;;5071798;28;20474;-71
2021/07/15 08:48:12;;;;;;;14.52;4.03;;;18.00;99.90;;;;;;5061811;28;20028;-72
2021/07/15 08:50:39;;;;;;;21.13;5.22;;;18.10;99.90;;;;;;5073874;28;20051;-71
2021/07/15 08:53:05;;;;;;;17.00;5.25;;;18.10;99.90;;;;;;5063116;28;20028;-71
2021/07/15 08:58:18;;;;;;;12.93;4.30;;;18.00;99.90;;;;;;5074764;28;20550;-71
2021/07/15 09:00:46;;;;;;;14.02;4.18;;;18.00;99.90;;;;;;5063245;28;20047;-71
2021/07/15 09:03:12;;;;;;;20.10;5.22;;;18.00;99.90;;;;;;5062330;28;20039;-71
2021/07/15 09:05:38;;;;;;;27.38;5.53;;;17.90;99.90;;;;;;5072142;28;20044;-72
2021/07/15 09:08:05;;;;;;;23.08;4.88;;;17.80;99.90;;;;;;5060600;28;20444;-70
2021/07/15 09:10:30;;;;;;;19.05;5.28;;;17.70;99.90;;;;;;5077109;28;20040;-71
2021/07/15 09:12:57;;;;;;;16.23;6.18;;;17.70;99.90;;;;;;5063208;28;20047;-71
2021/07/15 09:15:23;;;;;;;15.13;5.55;;;17.60;99.90;;;;;;5060057;28;20021;-71
2021/07/15 09:17:49;;;;;;;13.75;5.40;;;17.60;99.90;;;;;;5059827;28;20056;-70
2021/07/15 09:20:20;;;;;;;17.70;6.88;;;17.60;99.90;;;;;;5072131;28;20503;-71
2021/07/15 09:23:04;;;;;;;18.88;5.72;;;17.60;99.90;;;;;;5073360;28;20041;-71
2021/07/15 09:25:39;;;;;;;18.90;5.80;;;17.60;99.90;;;;;;5053457;28;20029;-71
2021/07/15 09:28:06;;;;;;;14.10;5.28;;;17.60;99.90;;;;;;5059647;28;20074;-71
2021/07/15 09:30:32;;;;;;;20.52;6.25;;;17.70;99.90;;;;;;5076551;28;20029;-71
2021/07/15 09:33:12;;;;;;;20.52;5.57;;;17.70;99.90;;;;;;5062492;28;20844;-71
2021/07/15 09:35:42;;;;;;;21.85;6.30;;;17.80;99.90;;;;;;5053109;28;20039;-71
2021/07/15 09:38:23;;;;;;;11.43;4.97;;;17.70;99.90;;;;;;5073340;28;20101;-71
2021/07/15 09:40:57;;;;;;;14.23;5.47;;;17.80;99.90;;;;;;5077191;28;20116;-71
2021/07/15 09:43:28;;;;;;;21.77;5.18;;;17.80;99.90;;;;;;5055084;28;20056;-71
2021/07/15 09:45:57;;;;;;;22.23;5.35;;;17.80;99.90;;;;;;5072165;28;20135;-71
2021/07/15 09:48:28;;;;;;;22.27;6.22;;;17.80;99.90;;;;;;5071822;28;20032;-71
2021/07/15 09:51:00;;;;;;;23.25;6.00;;;17.80;99.90;;;;;;5072550;28;20090;-71
2021/07/15 09:53:30;;;;;;;13.60;5.20;;;17.80;99.90;;;;;;5056677;28;20543;-71
2021/07/15 09:56:04;;;;;;;12.48;4.10;;;17.90;99.90;;;;;;5071314;28;20063;-71
2021/07/15 09:58:34;;;;;;;13.32;4.25;;;17.90;99.90;;;;;;5073240;28;20039;-71
2021/07/15 10:01:08;;;;;;;16.97;5.77;;;17.90;99.90;;;;;;5058389;28;20049;-71
2021/07/15 10:03:42;;;;;;;12.57;4.60;;;17.90;99.90;;;;;;5053881;28;20492;-71
2021/07/15 10:06:09;;;;;;;11.95;3.72;;;18.00;99.90;;;;;;5055786;28;20489;-71
2021/07/15 10:08:38;;;;;;;15.50;4.28;;;18.00;99.90;;;;;;5057547;28;20370;-73
2021/07/15 10:11:29;;;;;;;13.77;4.18;;;18.00;99.90;;;;;;5057496;28;20024;-71
2021/07/15 10:14:01;;;;;;;10.15;3.75;;;18.00;99.90;;;;;;5060324;28;20100;-72
2021/07/15 10:16:33;;;;;;;14.90;4.47;;;18.00;99.90;;;;;;5049245;28;20127;-71
2021/07/15 10:19:00;;;;;;;13.40;4.60;;;18.00;99.90;;;;;;5054812;28;20631;-71
2021/07/15 10:21:28;;;;;;;9.48;4.50;;;18.00;99.90;;;;;;5079661;28;20024;-71
2021/07/15 10:23:54;;;;;;;11.32;4.10;;;18.10;99.90;;;;;;5080345;28;20028;-72
2021/07/15 10:26:20;;;;;;;8.63;4.18;;;18.10;99.90;;;;;;5075763;28;20051;-71
2021/07/15 10:28:48;;;;;;;15.98;3.88;;;18.20;99.90;;;;;;5061796;28;20028;-71
2021/07/15 10:31:16;;;;;;;11.98;4.80;;;18.20;99.90;;;;;;5081887;28;20133;-71
2021/07/15 10:33:43;;;;;;;16.73;4.95;;;18.20;99.90;;;;;;5060302;28;20036;-71
2021/07/15 10:36:09;;;;;;;15.98;4.65;;;18.30;99.90;;;;;;5077079;28;20527;-71
2021/07/15 10:38:40;;;;;;;11.63;4.15;;;18.40;99.90;;;;;;5078169;28;20082;-72
2021/07/15 10:41:07;;;;;;;21.27;5.20;;;18.50;99.90;;;;;;5072605;28;20032;-72
2021/07/15 10:43:34;;;;;;;11.10;4.53;;;18.60;99.90;;;;;;5073687;28;20028;-71
2021/07/15 10:46:04;;;;;;;12.23;4.63;;;18.60;99.90;;;;;;5062446;28;20443;-72
2021/07/15 10:48:33;;;;;;;15.20;4.80;;;18.70;99.90;;;;;;5060951;28;20416;-71
2021/07/15 10:51:00;;;;;;;12.10;5.18;;;18.60;99.90;;;;;;5058007;28;20028;-73
2021/07/15 10:53:30;;;;;;;16.10;5.20;;;18.50;99.90;;;;;;5079475;28;20099;-71
2021/07/15 10:55:56;;;;;;;14.15;4.45;;;18.50;99.90;;;;;;5078552;28;20032;-71
2021/07/15 10:59:01;;;;;;;11.57;4.25;;;18.60;99.90;;;;;;5058916;28;20036;-71
2021/07/15 11:01:36;;;;;;;13.05;4.47;;;18.30;99.90;;;;;;5068252;28;20112;-72
2021/07/15 11:04:14;;;;;;;12.05;4.53;;;18.30;99.90;;;;;;5050880;28;20036;-71
2021/07/15 11:06:49;;;;;;;11.88;5.65;;;18.20;99.90;;;;;;5075194;28;20557;-71
2021/07/15 11:09:32;;;;;;;14.98;5.47;;;18.20;99.90;;;;;;5064649;28;20112;-71
2021/07/15 11:12:00;;;;;;;13.38;4.65;;;18.20;99.90;;;;;;5085539;28;20032;-71
2021/07/15 11:14:46;;;;;;;21.90;5.80;;;18.10;99.90;;;;;;5084829;28;20033;-71
2021/07/15 11:17:21;;;;;;;18.52;5.43;;;18.10;99.90;;;;;;5056614;28;20035;-72
2021/07/15 11:20:24;;;;;;;17.10;5.85;;;18.20;99.90;;;;;;5073550;28;20036;-72
2021/07/15 11:22:58;;;;;;;10.13;4.40;;;18.20;99.90;;;;;;5052302;28;20524;-72
2021/07/15 11:25:36;;;;;;;15.13;5.43;;;18.10;99.90;;;;;;5073730;28;20032;-72
2021/07/15 11:28:15;;;;;;;15.88;5.50;;;18.20;99.90;;;;;;5052126;28;20049;-72
2021/07/15 11:30:42;;;;;;;13.85;6.40;;;18.20;99.90;;;;;;5069388;28;20044;-72
2021/07/15 11:33:23;;;;;;;17.35;5.70;;;18.20;99.90;;;;;;5058844;28;20040;-72
2021/07/15 11:36:00;;;;;;;;;;;18.30;99.90;;;;;;5062685;28;20048;-72
2021/07/15 11:38:27;;;;;;;15.18;5.05;;;18.30;99.90;;;;;;5055526;28;19944;-72
2021/07/15 11:40:54;;;;;;;17.83;5.22;;;18.30;99.90;;;;;;5075872;28;20032;-72
2021/07/15 11:43:37;;;;;;;16.33;5.78;;;18.30;99.90;;;;;;5074085;28;20037;-72
2021/07/15 11:46:12;;;;;;;15.60;5.60;;;18.30;99.90;;;;;;5060424;28;20563;-73
2021/07/15 11:48:52;;;;;;;19.63;6.38;;;18.30;99.90;;;;;;5050656;28;20048;-72
2021/07/15 11:51:37;;;;;;;;;;;18.30;99.90;;;;;;5062590;28;20115;-72
2021/07/15 11:54:33;;;;;;;16.63;5.30;;;18.30;99.90;;;;;;5070564;28;19919;-72
2021/07/15 11:57:14;;;;;;;15.52;4.97;;;18.30;99.90;;;;;;5068338;28;20040;-73
2021/07/15 11:59:45;;;;;;;15.93;5.38;;;18.30;99.90;;;;;;5072235;28;20423;-72
2021/07/15 12:02:21;;;;;;;18.13;6.78;;;18.30;99.90;;;;;;5070530;28;20024;-71
2021/07/15 12:05:11;;;;;;;18.55;5.18;;;18.30;99.90;;;;;;5065590;28;20036;-72
2021/07/15 12:07:47;;;;;;;18.60;5.53;;;18.40;99.90;;;;;;5067851;28;20110;-72
2021/07/15 12:10:27;;;;;;;16.90;5.55;;;18.40;99.90;;;;;;5070363;28;20029;-73
2021/07/15 12:12:57;;;;;;;21.30;6.10;;;18.40;99.90;;;;;;5070187;28;20123;-72
2021/07/15 12:15:25;;;;;;;13.35;4.82;;;18.40;99.90;;;;;;5055412;28;20069;-72
2021/07/15 12:17:53;;;;;;;13.07;4.72;;;18.40;99.90;;;;;;5071445;28;20033;-72
2021/07/15 12:20:21;;;;;;;17.40;4.28;;;18.40;99.90;;;;;;5053847;28;20036;-72
2021/07/15 12:22:54;;;;;;;10.45;5.28;;;18.50;99.90;;;;;;5072524;28;20047;-71
2021/07/15 12:25:21;;;;;;;14.60;4.68;;;18.40;99.90;;;;;;5057270;28;20032;-72
2021/07/15 12:27:49;;;;;;;16.60;4.47;;;18.50;99.90;;;;;;5069236;28;20044;-72
2021/07/15 12:30:16;;;;;;;13.48;3.78;;;18.60;99.90;;;;;;5061693;28;20029;-72
2021/07/15 12:32:53;;;;;;;14.90;4.82;;;18.60;99.90;;;;;;5071535;28;20503;-72
2021/07/15 12:35:19;;;;;;;14.32;4.85;;;18.60;99.90;;;;;;5056726;28;20037;-72
2021/07/15 12:37:44;;;;;;;12.23;4.40;;;18.60;99.90;;;;;;5051368;28;20046;-72
2021/07/15 12:40:11;;;;;;;17.02;4.53;;;18.60;99.90;;;;;;5058749;28;20051;-72
2021/07/15 12:42:36;;;;;;;13.80;4.57;;;18.60;99.90;;;;;;5071395;28;20047;-72
2021/07/15 12:45:16;;;;;;;12.30;4.90;;;18.60;99.90;;;;;;5063239;28;20468;-71
2021/07/15 12:48:03;;;;;;;14.63;5.05;;;18.60;99.90;;;;;;5069099;28;20029;-72
2021/07/15 12:50:30;;;;;;;11.45;4.40;;;18.60;99.90;;;;;;5051959;28;20025;-72
2021/07/15 12:53:26;;;;;;;12.20;5.50;;;18.50;99.90;;;;;;5067091;28;20036;-72